EST,Max TemperatureF,Mean TemperatureF,Min TemperatureF,Max Dew PointF,MeanDew PointF,Min DewpointF,Max Humidity, Mean Humidity, Min Humidity, Max Sea Level PressureIn, Mean Sea Level PressureIn, Min Sea Level PressureIn, Max VisibilityMiles, Mean VisibilityMiles, Min VisibilityMiles, Max Wind SpeedMPH, Mean Wind SpeedMPH, Max Gust SpeedMPH,PrecipitationIn, CloudCover, Events, WindDirDegrees
2013-1-1,28,22,12,21,16,8,81,70,58,30.17,30.12,30.04,10,10,7,10,5,,0.00,6,,311
2013-1-2,21,16,10,13,8,3,84,71,57,30.25,30.19,30.14,10,10,7,12,7,,0.00,3,,211
2013-1-3,30,22,14,23,16,3,81,71,62,30.25,30.18,30.10,10,8,4,20,11,23,0.00,7,,234
2013-1-4,27,20,14,20,15,8,84,75,69,30.27,30.23,30.19,10,9,5,20,13,25,0.00,0,,232
2013-1-5,34,26,19,29,22,16,88,78,66,30.30,30.19,30.05,10,7,3,15,10,22,0.00,4,Snow,203
2013-1-6,36,31,26,30,25,21,86,79,72,30.33,30.09,29.94,10,6,2,21,13,29,0.00,8,,244
2013-1-7,35,27,19,25,20,16,89,79,61,30.41,30.32,30.18,10,5,2,21,8,26,0.00,1,,205
2013-1-8,37,32,27,27,24,21,78,71,62,30.26,30.20,30.13,9,6,4,13,9,,0.00,0,,186
2013-1-9,45,38,30,32,28,22,76,66,47,30.49,30.26,30.09,10,10,10,18,12,23,0.00,1,,244
2013-1-10,41,32,24,34,28,20,89,78,57,30.54,30.30,30.05,10,8,2,20,7,28,0.46,4,Rain,121
2013-1-11,55,46,37,52,45,35,93,86,77,30.04,29.84,29.76,10,8,2,25,13,36,0.35,7,Rain,179
2013-1-12,59,52,42,48,44,38,87,80,67,29.94,29.88,29.81,10,9,4,16,11,,0.33,3,Rain,232
2013-1-13,39,32,23,36,31,17,93,88,78,30.17,29.94,29.80,10,5,2,18,11,22,0.63,8,Rain-Snow,312
2013-1-14,24,22,18,17,14,12,81,76,69,30.47,30.39,30.20,10,9,5,15,10,23,0.00,6,,290
2013-1-15,28,21,14,21,16,10,92,79,64,30.45,30.36,30.17,10,8,4,7,2,,0.00,0,,114
2013-1-16,35,27,19,26,20,17,92,74,50,30.12,30.00,29.89,10,7,2,21,6,28,0.00,4,,235
2013-1-17,36,28,21,27,21,13,85,70,54,30.38,30.21,30.03,10,10,6,21,11,30,0.00,3,,291
2013-1-18,37,29,21,24,18,13,78,62,50,30.45,30.28,30.02,10,10,10,23,12,34,0.00,2,,211
2013-1-19,48,42,36,33,30,25,70,62,51,30.01,29.88,29.75,10,10,10,28,19,36,0.00,1,,223
2013-1-20,39,28,17,25,11,8,74,65,51,30.26,30.15,29.77,10,7,2,36,19,46,0.00,7,Snow,288
2013-1-21,19,14,8,8,2,-3,80,61,43,30.22,30.13,30.07,10,8,2,25,18,37,0.00,7,Snow,265
2013-1-22,10,6,3,0,-2,-4,78,66,51,30.37,30.29,30.17,10,8,2,18,14,23,0.00,6,Snow,257
2013-1-23,19,14,8,16,7,-2,86,68,49,30.34,30.18,30.07,10,6,1,18,12,28,0.00,7,Snow,251
2013-1-24,19,10,1,12,4,-2,84,67,46,30.64,30.44,30.14,10,9,2,16,10,29,0.00,3,Snow,37
2013-1-25,24,21,18,20,14,6,86,74,60,30.43,30.14,30.01,10,5,0,12,8,,0.00,8,Snow,179
2013-1-26,28,26,23,20,18,15,81,73,64,30.45,30.30,30.04,10,9,4,12,7,,0.00,7,Snow,301
2013-1-27,34,26,19,31,21,14,89,76,61,30.44,30.28,30.05,10,6,2,20,9,26,0.10,7,Rain-Snow,140
2013-1-28,48,42,35,48,42,32,100,94,89,30.04,29.94,29.88,4,1,0,17,11,21,0.09,8,Fog-Rain,205
2013-1-29,59,51,43,55,53,42,100,90,82,29.94,29.68,29.39,10,3,0,25,15,37,0.66,8,Fog-Rain-Thunderstorm,188
2013-1-30,55,42,28,54,42,23,96,88,76,29.47,29.32,29.16,10,5,0,26,12,34,0.99,8,Fog-Rain-Snow-Thunderstorm,245
2013-1-31,27,18,10,20,12,5,86,75,62,30.04,29.73,29.52,10,4,1,26,21,38,0.01,8,Snow,259